Playa De Oro International Airport
MMZO : now visible

Airfield :











YOU CAN JOIN US ON...

 
LOGIN :

Register | Disclaimer

   EN    FR    IT 

 









Legend :    VFR   Marginal VFR   IFR   Intensive IFR   Very Intensive IFR
Visi :
Ceiling :
>= 8 km
>= 3000ft
5 to 8 km
1000 to 3000 ft
1500m to 5 km
500 to 1000 ft
800 to 1500m
200 to 500 ft
< 800m
< 200 ft
Symbols :   Thunderstorms  Fog  Heavy snow  Heavy precipitations  Wind > 20 kt






- Airport Elevation : 30 ft
- IATA code : ZLO


MMZO - Playa De Oro International

CURRENT METAR :
  • 081940Z 24010KT 12SM FEW020 31/25 A2993 RMK 8/100

EXPIRED METARs :
  • 081840Z 24010KT 8SM SKC 31/25 A2996
  • 081740Z 24008KT 8SM SKC 31/25 A2999 RMK SLP108

TAF TAF MMZO
Valid from the 08 at 18:00 until the 09 at 18:00 UTC


081637Z 0818/0918 24008KT P6SM SKC
FM082000 24012KT P6SM SCT020
TEMPO 0821/0901 BKN020
FM090200 00000KT P6SM SCT020
BECMG 0912/0913 6SM HZ SKC



MET'MAP, your aeronautical weather chart ! - Copyright ORBIFLY December 2007 - Disclaimer

ORBIFLY MET'MAP TEAM :

Programming & Development : Alexandra Zaïnal
Concept & original design : Baudouin d'Aumeries
Assistance for programming : Marc-Olivier Méhu
Technical & hardware support : Manuel Goepfert

Contact : metmap@orbifly.com




SOURCES & CREDITS :

   NOAA       Earth
Advisory